KTOP

Philip Billard Municipal Airport

Topeka, Kansas, USA
KTOP 221637Z 2217/2312 34011KT 2SM -DZ BR OVC006 FM222100 34014G20KT 4SM FZRASN OVC006 FM230000 33016G23KT 2SM -SN BKN008 FM230500 32015G23KT P6SM OVC014
Issued Valid From Valid To
Jan-22 @ 16:37 UTC
(17 minutes ago)
Jan-22 @ 17:00 UTC
(in 6 minutes)
Jan-23 @ 12:00 UTC
(in 19 hours)
Jan-22 @ 17:00 to Jan-22 @ 21:00
KTOP 221637Z 2217/2312 34011KT 2SM -DZ BR OVC006
Wind Visibility Clouds Conditions
340° at 11 knots 2 miles
  • Overcast at 600' AGL
  • Light Drizzle
  • Mist
From Jan-22 @ 21:00 to Jan-23 @ 00:00
FM222100 34014G20KT 4SM FZRASN OVC006
Wind Visibility Clouds Conditions
340° at 14 knots
 Gusting to 20 knots
4 miles
  • Overcast at 600' AGL
  • Freezing
  • Rain
  • Snow
From Jan-23 @ 00:00 to Jan-23 @ 05:00
FM230000 33016G23KT 2SM -SN BKN008
Wind Visibility Clouds Conditions
330° at 16 knots
 Gusting to 23 knots
2 miles
  • Broken at 800' AGL
  • Light Snow
From Jan-23 @ 05:00 to Jan-23 @ 12:00
FM230500 32015G23KT P6SM OVC014
Wind Visibility Clouds
320° at 15 knots
 Gusting to 23 knots
Greater than 6 miles
  • Overcast at 1,400' AGL
KTOP 221637Z 2217/2312 34011KT 2SM -DZ BR OVC006 FM222100 34014G20KT 4SM FZRASN OVC006 FM230000 33016G23KT 2SM -SN BKN008 FM230500 32015G23KT P6SM OVC014
Issued Jan-22 @ 16:37 UTC
(17 minutes ago)
Valid From Jan-22 @ 17:00 UTC
(in 6 minutes)
Valid To Jan-23 @ 12:00 UTC
(in 19 hours)
Jan-22 @ 17:00 - Jan-22 @ 21:00
Wind Visibility
340° at 11 knots 2 miles
Clouds
  • Overcast at 600' AGL
Conditions
  • Light Drizzle
  • Mist
From Jan-22 @ 21:00 - Jan-23 @ 00:00
Wind Visibility
340° at 14 knots
 Gusting to 20 knots
4 miles
Clouds
  • Overcast at 600' AGL
Conditions
  • Freezing
  • Rain
  • Snow
From Jan-23 @ 00:00 - Jan-23 @ 05:00
Wind Visibility
330° at 16 knots
 Gusting to 23 knots
2 miles
Clouds
  • Broken at 800' AGL
Conditions
  • Light Snow
From Jan-23 @ 05:00 - Jan-23 @ 12:00
Wind Visibility
320° at 15 knots
 Gusting to 23 knots
Greater than 6 miles
Clouds
  • Overcast at 1,400' AGL